createdAt,value
2019-03-28T00:01:56.841Z,13.98
2019-03-28T00:04:28.482Z,13.62
2019-03-28T00:07:00.028Z,15.55
2019-03-28T00:09:32.385Z,15.08
2019-03-28T00:12:04.058Z,16.10
2019-03-28T00:14:35.637Z,15.05
2019-03-28T00:17:07.476Z,14.90
2019-03-28T00:19:39.237Z,13.88
2019-03-28T00:22:11.002Z,12.78
2019-03-28T00:25:20.175Z,14.35
2019-03-28T00:27:52.097Z,15.75
2019-03-28T00:30:24.058Z,18.95
2019-03-28T00:32:56.033Z,18.52
2019-03-28T00:35:45.868Z,17.55
2019-03-28T00:38:17.570Z,18.62
2019-03-28T00:40:49.231Z,16.45
2019-03-28T00:43:20.987Z,21.40
2019-03-28T00:45:52.950Z,21.07
2019-03-28T00:48:24.505Z,20.52
2019-03-28T00:50:56.467Z,21.55
2019-03-28T00:53:28.231Z,27.45
2019-03-28T00:55:59.793Z,28.87
2019-03-28T00:58:31.643Z,27.27
2019-03-28T01:01:03.817Z,25.35
2019-03-28T01:03:36.342Z,21.00
2019-03-28T01:06:08.539Z,17.50
2019-03-28T01:08:40.423Z,17.00
2019-03-28T01:11:12.306Z,16.85
2019-03-28T01:13:43.847Z,16.80
2019-03-28T01:20:50.128Z,17.73
2019-03-28T01:23:40.015Z,17.70
2019-03-28T01:26:11.752Z,18.55
2019-03-28T01:28:43.532Z,19.37
2019-03-28T01:31:34.565Z,18.57
2019-03-28T01:34:06.487Z,18.85
2019-03-28T01:36:38.522Z,20.32
2019-03-28T01:39:10.191Z,20.55
2019-03-28T01:41:42.084Z,19.17
2019-03-28T01:44:13.944Z,19.07
2019-03-28T01:46:45.685Z,19.07
2019-03-28T01:49:17.479Z,16.70
2019-03-28T01:51:49.457Z,16.75
2019-03-28T01:54:21.217Z,16.17
2019-03-28T01:56:52.842Z,16.48
2019-03-28T01:59:24.526Z,16.25
2019-03-28T02:01:56.890Z,16.30
2019-03-28T02:04:28.658Z,14.78
2019-03-28T02:07:00.314Z,15.45
2019-03-28T02:09:32.393Z,14.87
2019-03-28T02:12:04.247Z,14.20
2019-03-28T02:14:36.000Z,12.82
2019-03-28T02:17:07.944Z,11.88
2019-03-28T02:19:39.730Z,11.60
2019-03-28T02:22:11.747Z,11.30
2019-03-28T02:24:43.257Z,11.40
2019-03-28T02:27:23.953Z,11.33
2019-03-28T02:29:47.998Z,11.75
2019-03-28T02:32:19.901Z,11.38
2019-03-28T02:34:51.621Z,11.40
2019-03-28T02:37:23.281Z,11.70
2019-03-28T02:39:55.138Z,11.50
2019-03-28T02:42:27.779Z,11.30
2019-03-28T02:45:00.661Z,12.55
2019-03-28T02:47:32.271Z,10.38
2019-03-28T02:50:04.610Z,10.88
2019-03-28T02:52:36.545Z,11.60
2019-03-28T02:55:42.774Z,11.65
2019-03-28T02:58:14.329Z,12.20
2019-03-28T03:00:46.214Z,11.45
2019-03-28T03:03:18.559Z,10.85
2019-03-28T03:05:50.523Z,11.50
2019-03-28T03:08:22.091Z,11.15
2019-03-28T03:10:53.739Z,11.50
2019-03-28T03:13:25.587Z,12.47
2019-03-28T03:15:57.368Z,11.43
2019-03-28T03:18:29.425Z,11.65
2019-03-28T03:21:01.288Z,11.83
2019-03-28T03:23:33.038Z,13.28
2019-03-28T03:26:05.845Z,12.80
2019-03-28T03:28:37.603Z,11.63
2019-03-28T03:31:09.345Z,11.90
2019-03-28T03:33:41.303Z,12.10
2019-03-28T03:36:12.874Z,11.38
2019-03-28T03:38:44.631Z,11.35
2019-03-28T03:41:16.578Z,12.90
2019-03-28T03:43:49.160Z,12.18
2019-03-28T03:46:21.571Z,11.73
2019-03-28T03:48:53.304Z,11.63
2019-03-28T03:51:25.065Z,10.90
2019-03-28T03:53:57.715Z,12.47
2019-03-28T03:56:31.011Z,10.85
2019-03-28T03:59:02.603Z,10.40
2019-03-28T04:01:53.370Z,11.05
2019-03-28T04:04:26.902Z,11.03
2019-03-28T04:06:58.849Z,10.68
2019-03-28T04:09:30.689Z,10.60
2019-03-28T04:12:02.622Z,10.93
2019-03-28T04:15:17.843Z,10.68
2019-03-28T04:17:49.522Z,11.00
2019-03-28T04:20:21.467Z,10.78
2019-03-28T04:22:53.267Z,10.45
2019-03-28T04:25:25.008Z,10.53
2019-03-28T04:27:56.648Z,9.95
2019-03-28T04:30:28.625Z,10.70
2019-03-28T04:33:00.185Z,11.15
2019-03-28T04:35:32.143Z,11.12
2019-03-28T04:38:03.715Z,11.12
2019-03-28T04:40:36.354Z,11.12
2019-03-28T04:43:09.025Z,10.50
2019-03-28T04:45:40.733Z,10.32
2019-03-28T04:48:15.903Z,10.38
2019-03-28T04:50:47.875Z,10.60
2019-03-28T04:53:19.571Z,10.60
2019-03-28T04:55:51.707Z,10.08
2019-03-28T04:58:24.226Z,10.08
2019-03-28T05:00:55.994Z,10.00
2019-03-28T05:03:29.985Z,10.38
2019-03-28T05:06:01.884Z,10.00
2019-03-28T05:08:33.819Z,10.80
2019-03-28T05:11:06.289Z,9.70
2019-03-28T05:13:38.062Z,9.40
2019-03-28T05:16:09.730Z,11.12
2019-03-28T05:18:41.677Z,10.18
2019-03-28T05:21:13.438Z,10.63
2019-03-28T05:23:45.307Z,10.65
2019-03-28T05:26:17.882Z,10.95
2019-03-28T05:28:57.305Z,10.68
2019-03-28T05:31:23.148Z,10.50
2019-03-28T05:33:56.167Z,9.98
2019-03-28T05:36:27.894Z,10.00
2019-03-28T05:38:59.865Z,10.08
2019-03-28T05:41:31.519Z,10.18
2019-03-28T05:44:03.273Z,10.50
2019-03-28T05:46:35.227Z,10.95
2019-03-28T05:49:06.802Z,10.43
2019-03-28T05:51:38.441Z,11.28
2019-03-28T05:54:10.410Z,10.70
2019-03-28T05:56:43.866Z,11.18
2019-03-28T05:59:15.579Z,10.65
2019-03-28T06:01:47.139Z,10.70
2019-03-28T06:04:19.088Z,11.03
2019-03-28T06:06:52.626Z,11.05
2019-03-28T06:09:24.935Z,11.90
2019-03-28T06:11:57.001Z,11.50
2019-03-28T06:14:28.695Z,10.58
2019-03-28T06:17:01.568Z,10.63
2019-03-28T06:19:33.510Z,11.18
2019-03-28T06:22:05.397Z,11.80
2019-03-28T06:24:36.955Z,11.05
2019-03-28T06:27:08.715Z,11.35
2019-03-28T06:29:40.677Z,11.18
2019-03-28T06:32:12.343Z,10.95
2019-03-28T06:34:49.630Z,10.82
2019-03-28T06:37:21.398Z,11.53
2019-03-28T06:39:53.734Z,10.65
2019-03-28T06:42:35.321Z,11.43
2019-03-28T06:45:08.331Z,10.55
2019-03-28T06:47:42.858Z,11.00
2019-03-28T06:50:14.826Z,12.20
2019-03-28T06:52:46.484Z,11.20
2019-03-28T06:55:18.641Z,11.90
2019-03-28T06:57:50.794Z,11.65
2019-03-28T07:00:22.586Z,11.45
2019-03-28T07:02:54.156Z,11.78
2019-03-28T07:05:25.912Z,11.88
2019-03-28T07:07:58.995Z,12.05
2019-03-28T07:10:31.419Z,11.22
2019-03-28T07:13:04.224Z,11.33
2019-03-28T07:15:36.876Z,11.68
2019-03-28T07:18:09.590Z,12.18
2019-03-28T07:20:42.462Z,10.82
2019-03-28T07:23:14.148Z,12.85
2019-03-28T07:25:47.002Z,11.57
2019-03-28T07:28:19.332Z,11.00
2019-03-28T07:30:52.881Z,12.00
2019-03-28T07:33:29.966Z,10.77
2019-03-28T07:36:02.822Z,14.90
2019-03-28T07:38:36.096Z,12.33
2019-03-28T07:41:07.646Z,11.12
2019-03-28T07:43:40.191Z,13.25
2019-03-28T07:46:12.164Z,11.60
2019-03-28T07:48:44.858Z,11.80
2019-03-28T07:51:17.525Z,11.28
2019-03-28T07:53:50.167Z,11.85
2019-03-28T07:56:21.976Z,12.93
2019-03-28T07:58:54.097Z,13.62
2019-03-28T08:01:25.714Z,14.98
2019-03-28T08:03:58.537Z,13.72
2019-03-28T08:06:30.517Z,14.85
2019-03-28T08:09:02.726Z,12.63
2019-03-28T08:11:34.479Z,13.72
2019-03-28T08:14:06.560Z,13.85
2019-03-28T08:16:40.324Z,12.73
2019-03-28T08:19:12.118Z,15.85
2019-03-28T08:21:44.594Z,13.78
2019-03-28T08:24:16.831Z,12.43
2019-03-28T08:26:48.352Z,11.97
2019-03-28T08:29:20.076Z,11.35
2019-03-28T08:31:54.035Z,11.15
2019-03-28T08:34:25.883Z,11.03
2019-03-28T08:36:58.287Z,10.13
2019-03-28T08:39:30.811Z,10.30
2019-03-28T08:42:02.569Z,9.65
2019-03-28T08:44:36.032Z,11.08
2019-03-28T08:47:07.722Z,10.78
2019-03-28T08:49:39.644Z,10.28
2019-03-28T08:52:11.977Z,10.55
2019-03-28T08:54:44.425Z,10.38
2019-03-28T08:57:16.900Z,9.40
2019-03-28T08:59:51.176Z,10.25
2019-03-28T09:02:23.189Z,9.73
2019-03-28T09:04:54.780Z,9.65
2019-03-28T09:07:26.704Z,9.80
2019-03-28T09:09:58.785Z,9.85
2019-03-28T09:17:12.555Z,9.88
2019-03-28T09:19:45.487Z,9.68
2019-03-28T09:22:17.608Z,9.25
2019-03-28T09:25:10.235Z,9.58
2019-03-28T09:27:42.212Z,11.03
2019-03-28T09:30:15.745Z,10.32
2019-03-28T09:32:47.789Z,10.93
2019-03-28T09:35:31.461Z,10.28
2019-03-28T09:38:03.213Z,10.95
2019-03-28T09:40:35.171Z,10.90
2019-03-28T09:43:08.294Z,10.18
2019-03-28T09:45:40.219Z,10.32
2019-03-28T09:48:12.112Z,11.10
2019-03-28T09:50:45.516Z,10.63
2019-03-28T09:53:19.885Z,11.38
2019-03-28T09:55:52.158Z,10.58
2019-03-28T09:58:24.143Z,11.00
2019-03-28T10:01:03.213Z,9.78
2019-03-28T10:03:31.653Z,10.98
2019-03-28T10:06:03.636Z,10.70
2019-03-28T10:08:35.667Z,10.32
2019-03-28T10:11:09.861Z,10.90
2019-03-28T10:13:41.684Z,10.72
2019-03-28T10:16:13.609Z,10.98
2019-03-28T10:18:46.800Z,11.03
2019-03-28T10:21:19.501Z,10.98
2019-03-28T10:24:02.280Z,10.05
2019-03-28T10:26:34.041Z,10.60
2019-03-28T10:29:06.137Z,11.25
2019-03-28T10:31:57.633Z,10.90
2019-03-28T10:34:29.468Z,11.65
2019-03-28T10:37:02.193Z,10.50
2019-03-28T10:39:34.176Z,10.63
2019-03-28T10:42:05.906Z,10.88
2019-03-28T10:44:37.779Z,10.60
2019-03-28T10:47:09.649Z,10.78
2019-03-28T10:49:41.572Z,10.63
2019-03-28T10:52:13.599Z,11.33
2019-03-28T10:54:45.669Z,11.68
2019-03-28T10:57:29.331Z,11.05
2019-03-28T10:59:51.630Z,10.85
2019-03-28T11:02:23.990Z,10.28
2019-03-28T11:04:57.094Z,11.22
2019-03-28T11:07:29.821Z,11.65
2019-03-28T11:10:01.738Z,10.90
2019-03-28T11:12:34.721Z,11.03
2019-03-28T11:15:07.492Z,11.63
2019-03-28T11:17:39.189Z,11.75
2019-03-28T11:20:11.626Z,11.60
2019-03-28T11:22:44.001Z,11.25
2019-03-28T11:25:15.983Z,12.15
2019-03-28T11:27:49.539Z,12.68
2019-03-28T11:30:21.941Z,10.72
2019-03-28T11:32:53.866Z,11.15
2019-03-28T11:35:26.921Z,11.68
2019-03-28T11:37:58.578Z,11.33
2019-03-28T11:40:30.428Z,12.60
2019-03-28T11:43:02.683Z,11.68
2019-03-28T11:45:34.686Z,11.20
2019-03-28T11:48:06.591Z,11.57
2019-03-28T11:50:38.500Z,11.30
2019-03-28T11:53:10.644Z,11.22
2019-03-28T11:55:42.429Z,11.20
2019-03-28T11:58:14.536Z,10.95
2019-03-28T12:00:46.436Z,11.40
2019-03-28T12:03:18.519Z,11.10
2019-03-28T12:05:53.003Z,11.57
2019-03-28T12:08:24.845Z,12.18
2019-03-28T12:10:56.773Z,11.88
2019-03-28T12:13:28.911Z,11.38
2019-03-28T12:16:00.690Z,11.93
2019-03-28T12:18:32.652Z,11.97
2019-03-28T12:21:04.522Z,12.00
2019-03-28T12:23:37.254Z,12.03
2019-03-28T12:26:09.559Z,11.10
2019-03-28T12:28:41.331Z,11.60
2019-03-28T12:31:13.077Z,11.57
2019-03-28T12:33:46.226Z,11.97
2019-03-28T12:36:18.739Z,11.43
2019-03-28T12:38:53.320Z,11.68
2019-03-28T12:41:24.943Z,10.95
2019-03-28T12:43:57.199Z,11.30
2019-03-28T12:46:29.980Z,10.98
2019-03-28T12:49:04.416Z,11.20
2019-03-28T12:51:35.984Z,10.63
2019-03-28T12:54:09.990Z,10.88
2019-03-28T12:56:41.833Z,11.95
2019-03-28T12:59:14.642Z,11.20
2019-03-28T13:01:46.481Z,11.22
2019-03-28T13:04:30.561Z,10.50
2019-03-28T13:07:03.308Z,10.58
2019-03-28T13:09:36.307Z,10.43
2019-03-28T13:12:08.154Z,10.75
2019-03-28T13:14:41.409Z,10.82
2019-03-28T13:17:13.212Z,9.73
2019-03-28T13:19:45.098Z,10.85
2019-03-28T13:22:16.849Z,10.68
2019-03-28T13:24:54.002Z,10.30
2019-03-28T13:27:26.774Z,10.90
2019-03-28T13:30:00.582Z,10.58
2019-03-28T13:32:41.765Z,11.20
2019-03-28T13:35:24.054Z,11.35
2019-03-28T13:37:57.137Z,11.03
2019-03-28T13:40:29.467Z,10.85
2019-03-28T13:43:01.366Z,10.25
2019-03-28T13:45:33.267Z,10.20
2019-03-28T13:48:05.823Z,10.35
2019-03-28T13:50:42.542Z,10.53
2019-03-28T13:53:16.955Z,10.72
2019-03-28T13:55:52.131Z,10.82
2019-03-28T13:58:24.766Z,11.35
2019-03-28T14:00:56.618Z,10.63
2019-03-28T14:03:30.284Z,10.85
2019-03-28T14:06:05.935Z,10.63
2019-03-28T14:08:51.135Z,10.60
2019-03-28T14:11:23.010Z,11.27
2019-03-28T14:14:01.790Z,10.65
2019-03-28T14:16:33.988Z,9.93
2019-03-28T14:19:07.684Z,10.80
2019-03-28T14:21:45.268Z,10.75
2019-03-28T14:24:22.762Z,10.00
2019-03-28T14:26:54.635Z,10.10
2019-03-28T14:29:33.309Z,10.20
2019-03-28T14:32:17.463Z,10.45
2019-03-28T14:34:49.088Z,11.10
2019-03-28T14:37:20.937Z,9.98
2019-03-28T14:40:13.753Z,10.55
2019-03-28T14:42:50.413Z,10.23
2019-03-28T14:45:29.292Z,11.18
2019-03-28T14:48:01.965Z,10.48
2019-03-28T14:50:42.130Z,10.58
2019-03-28T14:53:14.767Z,10.60
2019-03-28T14:55:47.927Z,10.55
2019-03-28T14:58:22.967Z,11.35
2019-03-28T15:01:03.881Z,11.10
2019-03-28T15:03:38.487Z,11.15
2019-03-28T15:06:13.036Z,10.95
2019-03-28T15:08:46.424Z,11.00
2019-03-28T15:11:18.133Z,11.25
2019-03-28T15:13:50.034Z,12.25
2019-03-28T15:16:24.228Z,10.70
2019-03-28T15:18:59.829Z,11.25
2019-03-28T15:21:31.612Z,11.68
2019-03-28T15:24:05.392Z,10.98
2019-03-28T15:26:37.320Z,11.70
2019-03-28T15:29:09.146Z,11.75
2019-03-28T15:31:40.932Z,11.53
2019-03-28T15:34:13.900Z,12.10
2019-03-28T15:36:45.698Z,11.45
2019-03-28T15:39:19.902Z,10.65
2019-03-28T15:41:51.444Z,11.57
2019-03-28T15:44:23.218Z,10.85
2019-03-28T15:46:55.556Z,11.03
2019-03-28T15:49:27.889Z,10.68
2019-03-28T15:52:02.996Z,11.15
2019-03-28T15:54:34.459Z,10.60
2019-03-28T15:57:10.149Z,11.05
2019-03-28T15:59:50.944Z,10.93
2019-03-28T16:02:22.834Z,11.08
2019-03-28T16:04:55.711Z,10.90
2019-03-28T16:07:29.536Z,11.33
2019-03-28T16:10:04.440Z,11.18
2019-03-28T16:12:36.228Z,11.57
2019-03-28T16:15:09.319Z,11.03
2019-03-28T16:17:41.234Z,10.90
2019-03-28T16:20:13.732Z,10.53
2019-03-28T16:22:47.150Z,10.78
2019-03-28T16:25:43.124Z,11.18
2019-03-28T16:28:10.968Z,11.08
2019-03-28T16:30:43.981Z,11.55
2019-03-28T16:33:41.932Z,10.88
2019-03-28T16:36:13.551Z,10.40
2019-03-28T16:38:46.048Z,11.20
2019-03-28T16:41:19.408Z,10.38
2019-03-28T16:43:51.368Z,10.18
2019-03-28T16:46:23.122Z,11.00
2019-03-28T16:49:14.565Z,10.75
2019-03-28T16:51:46.221Z,11.18
2019-03-28T16:55:10.215Z,10.70
2019-03-28T16:57:41.951Z,12.18
2019-03-28T17:00:17.203Z,11.08
2019-03-28T17:02:48.789Z,11.05
2019-03-28T17:05:21.740Z,10.53
2019-03-28T17:07:53.746Z,11.18
2019-03-28T17:10:46.986Z,11.33
2019-03-28T17:13:19.144Z,11.08
2019-03-28T17:15:51.158Z,11.78
2019-03-28T17:18:23.391Z,10.43
2019-03-28T17:20:56.372Z,11.18
2019-03-28T17:23:28.207Z,11.03
2019-03-28T17:25:59.893Z,11.50
2019-03-28T17:28:31.540Z,11.45
2019-03-28T17:31:03.321Z,11.57
2019-03-28T17:33:35.462Z,12.40
2019-03-28T17:36:07.354Z,11.05
2019-03-28T17:38:39.195Z,11.43
2019-03-28T17:41:11.161Z,11.60
2019-03-28T17:43:42.909Z,11.22
2019-03-28T17:46:14.687Z,10.95
2019-03-28T17:48:46.356Z,11.57
2019-03-28T17:51:18.211Z,12.23
2019-03-28T17:53:49.945Z,11.15
2019-03-28T17:56:21.797Z,11.85
2019-03-28T17:58:54.080Z,10.93
2019-03-28T18:01:26.146Z,12.20
2019-03-28T18:03:57.929Z,11.50
2019-03-28T18:06:29.682Z,12.03
2019-03-28T18:09:01.325Z,12.13
2019-03-28T18:11:33.323Z,12.07
2019-03-28T18:14:04.961Z,11.43
2019-03-28T18:16:37.321Z,12.10
2019-03-28T18:19:09.387Z,12.00
2019-03-28T18:21:41.761Z,12.37
2019-03-28T18:24:13.825Z,12.40
2019-03-28T18:26:45.718Z,11.35
2019-03-28T18:29:19.225Z,11.78
2019-03-28T18:31:52.566Z,11.05
2019-03-28T18:34:23.765Z,11.18
2019-03-28T18:36:55.683Z,11.38
2019-03-28T18:39:27.386Z,11.28
2019-03-28T18:41:59.831Z,11.10
2019-03-28T18:44:31.497Z,10.98
2019-03-28T18:47:03.350Z,11.28
2019-03-28T18:49:34.921Z,11.55
2019-03-28T18:52:07.531Z,11.65
2019-03-28T18:54:39.350Z,11.48
2019-03-28T18:57:11.100Z,11.18
2019-03-28T18:59:42.896Z,11.50
2019-03-28T19:02:14.646Z,12.03
2019-03-28T19:04:46.481Z,11.55
2019-03-28T19:07:18.037Z,12.68
2019-03-28T19:09:50.108Z,11.57
2019-03-28T19:12:22.147Z,12.23
2019-03-28T19:14:53.978Z,11.68
2019-03-28T19:17:25.612Z,11.75
2019-03-28T19:19:59.587Z,12.25
2019-03-28T19:22:30.940Z,12.63
2019-03-28T19:25:02.953Z,11.83
2019-03-28T19:27:34.687Z,12.13
2019-03-28T19:30:07.257Z,12.88
2019-03-28T19:32:39.527Z,12.68
2019-03-28T19:35:12.226Z,12.03
2019-03-28T19:37:43.993Z,12.58
2019-03-28T19:40:16.645Z,12.37
2019-03-28T19:42:48.430Z,12.68
2019-03-28T19:45:22.722Z,12.23
2019-03-28T19:47:54.395Z,12.60
2019-03-28T19:50:32.496Z,12.25
2019-03-28T19:53:04.086Z,12.53
2019-03-28T19:55:35.921Z,13.28
2019-03-28T19:58:08.385Z,13.78
2019-03-28T20:00:58.926Z,13.53
2019-03-28T20:03:30.755Z,13.28
2019-03-28T20:06:02.608Z,14.15
2019-03-28T20:08:34.281Z,12.82
2019-03-28T20:11:06.372Z,12.98
2019-03-28T20:13:38.367Z,13.55
2019-03-28T20:16:10.258Z,12.80
2019-03-28T20:18:43.041Z,13.45
2019-03-28T20:21:15.249Z,13.13
2019-03-28T20:23:46.966Z,12.90
2019-03-28T20:26:20.006Z,13.25
2019-03-28T20:28:52.007Z,14.43
2019-03-28T20:31:23.687Z,13.78
2019-03-28T20:33:55.457Z,14.47
2019-03-28T20:36:37.587Z,13.65
2019-03-28T20:39:04.225Z,13.40
2019-03-28T20:41:33.268Z,14.43
2019-03-28T20:44:05.131Z,13.80
2019-03-28T20:46:36.906Z,13.83
2019-03-28T20:49:09.159Z,14.63
2019-03-28T20:51:41.342Z,13.75
2019-03-28T20:54:13.217Z,13.75
2019-03-28T20:56:44.922Z,14.33
2019-03-28T20:59:16.527Z,13.80
2019-03-28T21:01:48.686Z,14.13
2019-03-28T21:04:30.787Z,13.88
2019-03-28T21:06:53.947Z,14.10
2019-03-28T21:09:25.605Z,13.93
2019-03-28T21:11:57.668Z,14.95
2019-03-28T21:14:29.876Z,14.55
2019-03-28T21:17:01.484Z,15.28
2019-03-28T21:19:33.289Z,13.88
2019-03-28T21:22:05.913Z,14.53
2019-03-28T21:24:38.027Z,14.80
2019-03-28T21:27:10.264Z,14.30
2019-03-28T21:29:48.660Z,13.98
2019-03-28T21:32:14.919Z,13.58
2019-03-28T21:34:46.959Z,14.05
2019-03-28T21:37:19.035Z,13.68
2019-03-28T21:39:50.815Z,13.28
2019-03-28T21:42:22.578Z,13.08
2019-03-28T21:44:54.336Z,12.82
2019-03-28T21:47:25.993Z,12.85
2019-03-28T21:49:57.828Z,12.85
2019-03-28T21:52:29.590Z,12.80
2019-03-28T21:55:01.360Z,12.60
2019-03-28T21:57:33.031Z,13.05
2019-03-28T22:00:04.799Z,12.58
2019-03-28T22:02:36.554Z,12.85
2019-03-28T22:05:08.828Z,13.68
2019-03-28T22:07:41.114Z,13.32
2019-03-28T22:10:12.739Z,13.28
2019-03-28T22:12:44.314Z,12.80
2019-03-28T22:18:39.525Z,13.20
2019-03-28T22:21:11.612Z,13.05
2019-03-28T22:24:02.415Z,13.35
2019-03-28T22:26:34.278Z,13.15
2019-03-28T22:29:06.423Z,12.98
2019-03-28T22:31:38.132Z,13.55
2019-03-28T22:34:25.317Z,13.50
2019-03-28T22:36:59.423Z,13.48
2019-03-28T22:39:30.288Z,13.50
2019-03-28T22:42:02.149Z,13.15
2019-03-28T22:44:55.062Z,12.35
2019-03-28T22:47:26.866Z,12.75
2019-03-28T22:49:58.396Z,12.90
2019-03-28T22:52:30.177Z,13.50
2019-03-28T22:55:02.010Z,13.43
2019-03-28T22:57:33.907Z,13.53
2019-03-28T23:00:07.089Z,13.98
2019-03-28T23:02:38.862Z,12.95
2019-03-28T23:05:11.623Z,13.15
2019-03-28T23:07:43.997Z,13.90
2019-03-28T23:10:16.971Z,13.88
2019-03-28T23:12:49.268Z,13.43
2019-03-28T23:15:22.096Z,14.20
2019-03-28T23:17:54.418Z,13.83
2019-03-28T23:20:26.172Z,13.60
2019-03-28T23:22:57.705Z,12.95
2019-03-28T23:25:29.998Z,14.47
2019-03-28T23:28:01.872Z,13.70
2019-03-28T23:30:34.439Z,13.25
2019-03-28T23:33:07.310Z,14.05
2019-03-28T23:35:39.012Z,13.18
2019-03-28T23:38:11.050Z,13.30
2019-03-28T23:41:01.786Z,13.93
2019-03-28T23:43:33.455Z,14.25
2019-03-28T23:46:05.203Z,13.70
2019-03-28T23:48:37.154Z,14.95
2019-03-28T23:51:08.920Z,14.47
2019-03-28T23:54:00.247Z,14.73
2019-03-28T23:56:33.012Z,14.00
2019-03-28T23:59:06.122Z,14.68
